createdAt,value
2018-07-20T00:00:52.992Z,60.60
2018-07-20T00:03:20.554Z,60.50
2018-07-20T00:05:47.960Z,60.70
2018-07-20T00:08:15.453Z,60.80
2018-07-20T00:10:43.451Z,60.90
2018-07-20T00:13:10.972Z,60.90
2018-07-20T00:15:38.386Z,60.70
2018-07-20T00:18:06.205Z,60.80
2018-07-20T00:20:33.638Z,60.90
2018-07-20T00:23:01.151Z,60.70
2018-07-20T00:25:28.780Z,60.80
2018-07-20T00:27:56.233Z,61.00
2018-07-20T00:30:23.939Z,60.90
2018-07-20T00:32:51.361Z,60.90
2018-07-20T00:35:18.814Z,60.90
2018-07-20T00:37:46.203Z,60.90
2018-07-20T00:40:13.765Z,61.00
2018-07-20T00:42:41.253Z,61.00
2018-07-20T00:45:08.629Z,61.20
2018-07-20T00:47:36.090Z,61.30
2018-07-20T00:50:04.032Z,61.40
2018-07-20T00:52:31.538Z,61.60
2018-07-20T00:54:59.003Z,61.60
2018-07-20T00:57:26.446Z,61.60
2018-07-20T00:59:53.967Z,61.70
2018-07-20T01:02:21.414Z,61.80
2018-07-20T01:04:48.926Z,61.70
2018-07-20T01:07:16.473Z,61.80
2018-07-20T01:09:44.415Z,62.00
2018-07-20T01:12:12.573Z,62.10
2018-07-20T01:14:40.059Z,62.10
2018-07-20T01:17:07.512Z,62.30
2018-07-20T01:19:34.913Z,62.30
2018-07-20T01:22:02.579Z,62.50
2018-07-20T01:24:30.141Z,62.60
2018-07-20T01:26:57.535Z,62.80
2018-07-20T01:29:25.001Z,62.90
2018-07-20T01:31:52.470Z,63.00
2018-07-20T01:34:20.096Z,63.10
2018-07-20T01:36:47.883Z,63.10
2018-07-20T01:39:15.490Z,63.20
2018-07-20T01:41:43.018Z,64.00
2018-07-20T01:44:10.484Z,63.20
2018-07-20T01:46:38.093Z,63.40
2018-07-20T01:49:05.613Z,63.50
2018-07-20T01:51:33.196Z,63.50
2018-07-20T01:54:00.667Z,63.60
2018-07-20T01:56:28.323Z,63.50
2018-07-20T01:58:55.818Z,63.60
2018-07-20T02:01:23.240Z,63.80
2018-07-20T02:03:50.755Z,64.00
2018-07-20T02:06:18.230Z,63.80
2018-07-20T02:08:45.857Z,63.90
2018-07-20T02:11:13.324Z,64.00
2018-07-20T02:13:40.802Z,64.00
2018-07-20T02:16:08.299Z,64.10
2018-07-20T02:18:35.812Z,64.20
2018-07-20T02:21:03.485Z,64.20
2018-07-20T02:23:30.931Z,64.40
2018-07-20T02:25:58.366Z,64.30
2018-07-20T02:28:25.911Z,64.30
2018-07-20T02:30:53.333Z,64.10
2018-07-20T02:33:20.881Z,64.20
2018-07-20T02:35:48.320Z,64.30
2018-07-20T02:38:15.807Z,64.30
2018-07-20T02:40:43.433Z,64.40
2018-07-20T02:43:10.916Z,64.60
2018-07-20T02:45:38.385Z,64.60
2018-07-20T02:48:06.021Z,64.70
2018-07-20T02:50:33.795Z,64.80
2018-07-20T02:53:01.297Z,64.90
2018-07-20T02:55:28.739Z,64.80
2018-07-20T02:57:56.241Z,64.90
2018-07-20T03:00:23.937Z,64.90
2018-07-20T03:02:51.416Z,65.00
2018-07-20T03:05:18.906Z,65.00
2018-07-20T03:07:46.353Z,64.90
2018-07-20T03:10:13.868Z,65.00
2018-07-20T03:12:41.289Z,64.90
2018-07-20T03:15:08.751Z,65.00
2018-07-20T03:17:36.176Z,65.00
2018-07-20T03:20:03.790Z,65.00
2018-07-20T03:22:31.421Z,65.20
2018-07-20T03:24:58.875Z,65.30
2018-07-20T03:27:26.285Z,65.30
2018-07-20T03:29:53.814Z,66.10
2018-07-20T03:32:21.405Z,65.30
2018-07-20T03:34:48.834Z,65.50
2018-07-20T03:37:16.514Z,65.50
2018-07-20T03:39:44.136Z,65.70
2018-07-20T03:42:11.660Z,65.50
2018-07-20T03:44:39.247Z,65.50
2018-07-20T03:47:06.731Z,65.40
2018-07-20T03:49:34.233Z,65.50
2018-07-20T03:52:01.838Z,65.70
2018-07-20T03:54:29.395Z,66.00
2018-07-20T03:56:56.961Z,66.00
2018-07-20T03:59:24.488Z,66.00
2018-07-20T04:01:51.975Z,66.00
2018-07-20T04:04:19.548Z,66.00
2018-07-20T04:06:47.026Z,66.10
2018-07-20T04:09:14.436Z,66.10
2018-07-20T04:11:41.935Z,66.30
2018-07-20T04:14:09.678Z,66.90
2018-07-20T04:16:37.401Z,66.30
2018-07-20T04:19:05.092Z,66.30
2018-07-20T04:21:32.609Z,66.40
2018-07-20T04:24:00.105Z,66.50
2018-07-20T04:26:27.665Z,66.50
2018-07-20T04:28:55.158Z,66.50
2018-07-20T04:31:22.751Z,66.60
2018-07-20T04:33:50.278Z,66.70
2018-07-20T04:36:17.970Z,66.90
2018-07-20T04:38:45.470Z,66.90
2018-07-20T04:41:12.987Z,67.00
2018-07-20T04:43:40.578Z,67.20
2018-07-20T04:48:35.519Z,67.50
2018-07-20T04:51:03.006Z,67.60
2018-07-20T04:53:30.494Z,67.60
2018-07-20T04:55:58.025Z,68.60
2018-07-20T04:58:25.491Z,67.90
2018-07-20T05:00:53.015Z,68.10
2018-07-20T05:03:20.559Z,68.30
2018-07-20T05:05:48.164Z,68.40
2018-07-20T05:08:15.650Z,68.80
2018-07-20T05:10:43.133Z,68.60
2018-07-20T05:13:10.830Z,68.60
2018-07-20T05:15:38.421Z,68.90
2018-07-20T05:18:06.021Z,68.40
2018-07-20T05:20:33.578Z,69.30
2018-07-20T05:23:01.020Z,69.40
2018-07-20T05:25:28.522Z,69.40
2018-07-20T05:27:55.926Z,69.60
2018-07-20T05:30:23.435Z,69.70
2018-07-20T05:32:51.037Z,70.00
2018-07-20T05:37:46.042Z,70.50
2018-07-20T05:40:13.999Z,70.50
2018-07-20T05:42:41.629Z,70.50
2018-07-20T05:45:09.122Z,70.70
2018-07-20T05:47:36.617Z,70.70
2018-07-20T05:50:06.022Z,70.70
2018-07-20T05:52:33.527Z,71.30
2018-07-20T05:55:01.086Z,70.70
2018-07-20T05:57:28.604Z,70.80
2018-07-20T05:59:56.145Z,71.10
2018-07-20T06:02:23.602Z,71.20
2018-07-20T06:04:51.183Z,71.00
2018-07-20T06:09:46.227Z,70.70
2018-07-20T06:12:13.723Z,71.30
2018-07-20T06:14:41.231Z,71.40
2018-07-20T06:17:08.858Z,71.40
2018-07-20T06:19:36.254Z,71.50
2018-07-20T06:22:04.034Z,71.50
2018-07-20T06:24:31.748Z,71.60
2018-07-20T06:26:59.338Z,71.70
2018-07-20T06:29:26.760Z,72.00
2018-07-20T06:31:54.245Z,72.00
2018-07-20T06:34:21.693Z,72.30
2018-07-20T06:36:49.269Z,72.30
2018-07-20T06:39:16.969Z,72.50
2018-07-20T06:41:44.617Z,72.50
2018-07-20T06:44:12.091Z,72.60
2018-07-20T06:46:39.560Z,72.80
2018-07-20T06:49:07.550Z,72.80
2018-07-20T06:51:35.955Z,72.90
2018-07-20T06:54:03.860Z,73.20
2018-07-20T06:56:31.465Z,73.40
2018-07-20T06:58:59.062Z,73.50
2018-07-20T07:01:26.463Z,73.30
2018-07-20T07:03:53.916Z,73.30
2018-07-20T07:06:21.593Z,73.30
2018-07-20T07:08:49.142Z,73.20
2018-07-20T07:11:16.665Z,73.20
2018-07-20T07:13:44.243Z,73.50
2018-07-20T07:16:11.755Z,73.50
2018-07-20T07:18:39.435Z,73.50
2018-07-20T07:21:06.955Z,73.50
2018-07-20T07:23:34.939Z,73.60
2018-07-20T07:26:02.471Z,73.90
2018-07-20T07:28:29.869Z,74.00
2018-07-20T07:30:57.337Z,73.80
2018-07-20T07:33:24.775Z,73.70
2018-07-20T07:35:52.318Z,73.60
2018-07-20T07:38:19.721Z,73.40
2018-07-20T07:40:47.379Z,73.50
2018-07-20T07:43:14.793Z,73.40
2018-07-20T07:45:42.358Z,73.30
2018-07-20T07:48:09.910Z,73.20
2018-07-20T07:50:37.402Z,73.20
2018-07-20T07:53:04.923Z,73.40
2018-07-20T07:55:32.430Z,73.50
2018-07-20T07:57:59.889Z,73.40
2018-07-20T08:00:27.345Z,73.40
2018-07-20T08:02:54.805Z,73.40
2018-07-20T08:05:22.446Z,73.40
2018-07-20T08:07:49.849Z,73.20
2018-07-20T08:10:17.409Z,73.30
2018-07-20T08:12:44.911Z,73.30
2018-07-20T08:15:12.454Z,73.40
2018-07-20T08:17:39.908Z,73.60
2018-07-20T08:20:07.433Z,73.50
2018-07-20T08:22:34.851Z,73.30
2018-07-20T08:25:02.363Z,73.30
2018-07-20T08:27:29.790Z,72.30
2018-07-20T08:29:57.274Z,69.60
2018-07-20T08:32:24.712Z,69.70
2018-07-20T08:34:52.294Z,69.80
2018-07-20T08:37:19.832Z,69.50
2018-07-20T08:39:47.314Z,69.40
2018-07-20T08:42:14.761Z,68.10
2018-07-20T08:44:42.318Z,68.00
2018-07-20T08:47:09.790Z,67.70
2018-07-20T08:49:37.403Z,67.40
2018-07-20T08:52:05.053Z,67.20
2018-07-20T08:54:32.540Z,66.70
2018-07-20T08:57:00.087Z,65.00
2018-07-20T08:59:27.718Z,63.80
2018-07-20T09:01:55.424Z,62.90
2018-07-20T09:04:22.850Z,63.30
2018-07-20T09:06:50.327Z,63.10
2018-07-20T09:09:17.834Z,63.50
2018-07-20T09:11:45.354Z,63.50
2018-07-20T09:14:12.890Z,63.80
2018-07-20T09:16:40.456Z,63.80
2018-07-20T09:19:08.007Z,64.40
2018-07-20T09:24:03.111Z,64.50
2018-07-20T09:26:30.693Z,64.60
2018-07-20T09:28:58.170Z,64.30
2018-07-20T09:31:25.747Z,64.10
2018-07-20T09:33:53.341Z,64.20
2018-07-20T09:36:20.856Z,63.50
2018-07-20T09:38:48.340Z,63.90
2018-07-20T09:41:15.765Z,63.40
2018-07-20T09:43:43.421Z,63.10
2018-07-20T09:46:11.043Z,63.30
2018-07-20T09:48:38.758Z,63.20
2018-07-20T09:51:06.316Z,63.50
2018-07-20T09:53:33.738Z,63.60
2018-07-20T09:58:28.812Z,62.30
2018-07-20T10:00:56.290Z,62.50
2018-07-20T10:03:23.791Z,63.30
2018-07-20T10:05:51.252Z,63.00
2018-07-20T10:08:19.419Z,62.90
2018-07-20T10:10:47.409Z,63.00
2018-07-20T10:13:15.146Z,62.80
2018-07-20T10:15:43.149Z,62.80
2018-07-20T10:18:10.627Z,62.60
2018-07-20T10:20:38.040Z,62.00
2018-07-20T10:23:05.554Z,62.40
2018-07-20T10:25:33.689Z,62.50
2018-07-20T10:28:01.205Z,62.40
2018-07-20T10:30:28.800Z,62.70
2018-07-20T10:32:56.256Z,62.80
2018-07-20T10:35:23.781Z,62.50
2018-07-20T10:37:51.648Z,62.80
2018-07-20T10:40:26.543Z,63.60
2018-07-20T10:42:55.265Z,63.10
2018-07-20T10:45:22.818Z,63.30
2018-07-20T10:47:50.267Z,63.40
2018-07-20T10:50:18.067Z,62.90
2018-07-20T10:52:45.851Z,62.00
2018-07-20T10:55:13.439Z,62.30
2018-07-20T10:57:41.126Z,62.60
2018-07-20T11:02:37.199Z,62.70
2018-07-20T11:05:05.285Z,62.70
2018-07-20T11:07:33.130Z,61.90
2018-07-20T11:10:00.638Z,62.20
2018-07-20T11:12:28.465Z,62.30
2018-07-20T11:14:56.501Z,62.30
2018-07-20T11:17:24.567Z,62.50
2018-07-20T11:19:52.074Z,62.50
2018-07-20T11:22:19.651Z,62.50
2018-07-20T11:24:47.682Z,62.40
2018-07-20T11:29:42.694Z,62.60
2018-07-20T11:32:10.230Z,62.70
2018-07-20T11:34:37.987Z,63.10
2018-07-20T11:37:05.543Z,63.20
2018-07-20T11:39:33.426Z,63.30
2018-07-20T11:49:24.695Z,62.50
2018-07-20T11:51:52.176Z,62.60
2018-07-20T11:54:19.613Z,62.80
2018-07-20T11:56:47.663Z,62.90
2018-07-20T11:59:15.080Z,63.00
2018-07-20T12:01:42.877Z,63.00
2018-07-20T12:04:10.499Z,62.70
2018-07-20T12:09:07.727Z,62.20
2018-07-20T12:11:35.312Z,62.10
2018-07-20T12:14:02.989Z,62.00
2018-07-20T12:16:31.108Z,61.60
2018-07-20T12:18:58.777Z,60.90
2018-07-20T12:21:26.173Z,61.10
2018-07-20T12:26:21.900Z,60.30
2018-07-20T12:28:49.428Z,60.20
2018-07-20T12:31:17.324Z,60.00
2018-07-20T12:33:44.749Z,60.10
2018-07-20T12:36:12.406Z,60.10
2018-07-20T12:38:39.870Z,60.40
2018-07-20T12:41:07.619Z,60.60
2018-07-20T12:46:03.747Z,60.00
2018-07-20T12:48:31.815Z,60.00
2018-07-20T12:50:59.296Z,59.00
2018-07-20T12:53:27.027Z,59.30
2018-07-20T12:55:54.834Z,59.50
2018-07-20T12:58:22.435Z,59.70
2018-07-20T13:00:50.093Z,59.80
2018-07-20T13:03:17.725Z,59.80
2018-07-20T13:05:45.176Z,58.80
2018-07-20T13:08:12.636Z,58.30
2018-07-20T13:10:40.251Z,58.10
2018-07-20T13:13:08.464Z,58.00
2018-07-20T13:15:35.945Z,58.10
2018-07-20T13:18:04.631Z,58.10
2018-07-20T13:20:32.362Z,58.10
2018-07-20T13:22:59.768Z,57.80
2018-07-20T13:27:54.986Z,57.10
2018-07-20T13:30:22.558Z,57.00
2018-07-20T13:32:50.175Z,56.70
2018-07-20T13:35:17.755Z,56.90
2018-07-20T13:37:45.253Z,57.00
2018-07-20T13:40:12.877Z,56.50
2018-07-20T13:42:40.364Z,55.70
2018-07-20T13:45:08.163Z,55.30
2018-07-20T13:47:35.786Z,54.70
2018-07-20T13:50:04.512Z,54.60
2018-07-20T13:52:32.369Z,55.00
2018-07-20T13:54:59.786Z,54.60
2018-07-20T13:57:27.257Z,54.90
2018-07-20T13:59:54.755Z,54.50
2018-07-20T14:02:22.271Z,54.80
2018-07-20T14:04:49.825Z,54.70
2018-07-20T14:07:17.425Z,54.70
2018-07-20T14:09:44.922Z,55.00
2018-07-20T14:12:12.513Z,54.60
2018-07-20T14:14:39.931Z,54.20
2018-07-20T14:17:07.457Z,53.30
2018-07-20T14:19:34.838Z,52.90
2018-07-20T14:22:02.413Z,53.30
2018-07-20T14:24:30.268Z,53.40
2018-07-20T14:26:57.781Z,53.50
2018-07-20T14:29:25.211Z,53.00
2018-07-20T14:31:52.778Z,52.70
2018-07-20T14:34:20.179Z,52.80
2018-07-20T14:36:47.669Z,52.70
2018-07-20T14:39:15.085Z,52.00
2018-07-20T14:41:42.602Z,51.00
2018-07-20T14:44:10.257Z,51.40
2018-07-20T14:46:37.690Z,51.30
2018-07-20T14:49:05.166Z,51.40
2018-07-20T14:51:32.676Z,50.70
2018-07-20T14:54:00.501Z,51.00
2018-07-20T14:56:28.054Z,51.50
2018-07-20T14:58:55.515Z,51.60
2018-07-20T15:01:22.951Z,51.20
2018-07-20T15:03:50.549Z,49.90
2018-07-20T15:06:18.021Z,49.70
2018-07-20T15:08:45.546Z,49.40
2018-07-20T15:11:13.006Z,49.50
2018-07-20T15:13:40.502Z,49.40
2018-07-20T15:16:08.149Z,49.80
2018-07-20T15:18:35.679Z,50.00
2018-07-20T15:21:03.212Z,49.80
2018-07-20T15:23:30.801Z,49.30
2018-07-20T15:25:58.257Z,49.00
2018-07-20T15:28:25.773Z,47.80
2018-07-20T15:30:53.365Z,47.50
2018-07-20T15:33:20.954Z,48.00
2018-07-20T15:35:48.470Z,48.20
2018-07-20T15:38:15.981Z,47.80
2018-07-20T15:40:43.431Z,46.70
2018-07-20T15:43:11.181Z,45.90
2018-07-20T15:45:38.654Z,46.70
2018-07-20T15:48:06.337Z,46.30
2018-07-20T15:50:33.935Z,45.60
2018-07-20T15:55:29.069Z,44.10
2018-07-20T15:57:57.326Z,44.30
2018-07-20T16:00:24.869Z,43.90
2018-07-20T16:02:52.358Z,43.70
2018-07-20T16:05:19.845Z,43.70
2018-07-20T16:07:47.370Z,43.70
2018-07-20T16:10:14.922Z,43.80
2018-07-20T16:12:42.451Z,44.60
2018-07-20T16:15:10.128Z,44.90
2018-07-20T16:17:37.650Z,44.50
2018-07-20T16:20:05.435Z,44.70
2018-07-20T16:22:32.969Z,44.70
2018-07-20T16:25:00.522Z,44.40
2018-07-20T16:27:28.137Z,44.70
2018-07-20T16:29:55.633Z,44.60
2018-07-20T16:32:23.242Z,45.80
2018-07-20T16:34:50.745Z,45.90
2018-07-20T16:37:18.210Z,46.00
2018-07-20T16:39:45.631Z,46.00
2018-07-20T16:42:13.190Z,46.30
2018-07-20T16:44:40.762Z,46.60
2018-07-20T16:47:08.225Z,47.10
2018-07-20T16:49:35.707Z,47.70
2018-07-20T16:52:03.222Z,47.60
2018-07-20T16:54:30.933Z,47.60
2018-07-20T16:59:26.075Z,48.20
2018-07-20T17:01:53.581Z,48.50
2018-07-20T17:04:20.997Z,48.90
2018-07-20T17:06:48.494Z,49.90
2018-07-20T17:09:15.990Z,49.40
2018-07-20T17:11:43.441Z,49.80
2018-07-20T17:14:10.994Z,50.10
2018-07-20T17:16:38.517Z,50.30
2018-07-20T17:19:06.056Z,50.40
2018-07-20T17:21:33.751Z,50.60
2018-07-20T17:24:01.300Z,51.10
2018-07-20T17:26:28.768Z,51.40
2018-07-20T17:31:23.766Z,51.20
2018-07-20T17:33:51.201Z,51.80
2018-07-20T17:36:18.630Z,51.90
2018-07-20T17:38:46.146Z,52.10
2018-07-20T17:41:13.631Z,51.90
2018-07-20T17:43:41.159Z,52.30
2018-07-20T17:46:09.563Z,52.40
2018-07-20T17:48:37.025Z,52.60
2018-07-20T17:51:04.618Z,52.50
2018-07-20T17:55:59.986Z,53.20
2018-07-20T17:58:27.562Z,53.20
2018-07-20T18:00:55.078Z,53.30
2018-07-20T18:03:22.532Z,53.30
2018-07-20T18:05:50.134Z,53.70
2018-07-20T18:08:17.681Z,53.50
2018-07-20T18:10:45.239Z,54.10
2018-07-20T18:13:12.741Z,54.20
2018-07-20T18:15:40.232Z,54.30
2018-07-20T18:18:07.782Z,54.50
2018-07-20T18:20:35.290Z,54.80
2018-07-20T18:23:02.831Z,55.00
2018-07-20T18:25:30.237Z,55.10
2018-07-20T18:27:57.721Z,55.30
2018-07-20T18:30:25.202Z,55.40
2018-07-20T18:32:52.641Z,55.60
2018-07-20T18:35:20.252Z,55.60
2018-07-20T18:37:47.761Z,55.70
2018-07-20T18:40:15.277Z,55.70
2018-07-20T18:42:42.822Z,55.60
2018-07-20T18:45:10.511Z,55.80
2018-07-20T18:47:38.190Z,55.90
2018-07-20T18:50:07.002Z,56.00
2018-07-20T18:52:35.162Z,56.00
2018-07-20T18:55:02.574Z,55.90
2018-07-20T18:57:30.019Z,55.80
2018-07-20T18:59:57.513Z,55.60
2018-07-20T19:02:24.999Z,55.80
2018-07-20T19:04:52.477Z,55.70
2018-07-20T19:07:19.917Z,55.80
2018-07-20T19:09:47.494Z,56.00
2018-07-20T19:12:14.933Z,56.00
2018-07-20T19:14:42.415Z,55.80
2018-07-20T19:17:09.964Z,56.00
2018-07-20T19:19:37.545Z,56.10
2018-07-20T19:22:07.056Z,56.00
2018-07-20T19:24:34.747Z,55.90
2018-07-20T19:27:02.340Z,55.90
2018-07-20T19:29:29.817Z,55.50
2018-07-20T19:31:57.263Z,56.10
2018-07-20T19:34:24.850Z,55.90
2018-07-20T19:39:19.677Z,56.20
2018-07-20T19:41:47.274Z,56.20
2018-07-20T19:44:14.770Z,56.40
2018-07-20T19:46:42.184Z,56.40
2018-07-20T19:49:09.727Z,56.40
2018-07-20T19:51:37.205Z,56.40
2018-07-20T19:54:04.921Z,56.20
2018-07-20T19:58:59.893Z,55.90
2018-07-20T20:01:27.358Z,55.90
2018-07-20T20:03:54.838Z,55.60
2018-07-20T20:06:22.324Z,55.60
2018-07-20T20:08:49.774Z,55.50
2018-07-20T20:11:17.351Z,55.60
2018-07-20T20:13:44.790Z,55.80
2018-07-20T20:16:12.205Z,55.70
2018-07-20T20:18:39.703Z,55.40
2018-07-20T20:21:07.145Z,55.40
2018-07-20T20:23:34.575Z,55.20
2018-07-20T20:26:02.114Z,55.30
2018-07-20T20:28:29.555Z,55.20
2018-07-20T20:30:57.065Z,55.30
2018-07-20T20:33:24.571Z,55.00
2018-07-20T20:35:52.050Z,55.10
2018-07-20T20:38:19.570Z,55.10
2018-07-20T20:43:14.438Z,55.10
2018-07-20T20:45:41.853Z,55.20
2018-07-20T20:48:09.389Z,55.20
2018-07-20T20:50:36.876Z,55.10
2018-07-20T20:53:04.661Z,55.00
2018-07-20T20:55:32.121Z,55.40
2018-07-20T20:57:59.537Z,54.50
2018-07-20T21:00:27.044Z,54.30
2018-07-20T21:02:54.514Z,54.40
2018-07-20T21:05:22.047Z,54.50
2018-07-20T21:07:49.618Z,54.30
2018-07-20T21:12:44.583Z,54.40
2018-07-20T21:15:12.125Z,54.30
2018-07-20T21:20:07.073Z,54.20
2018-07-20T21:22:34.585Z,54.00
2018-07-20T21:25:02.118Z,54.10
2018-07-20T21:27:29.633Z,54.20
2018-07-20T21:29:57.157Z,54.40
2018-07-20T21:32:24.707Z,54.50
2018-07-20T21:34:52.267Z,54.50
2018-07-20T21:37:19.753Z,54.60
2018-07-20T21:39:47.188Z,54.60
2018-07-20T21:42:14.671Z,54.70
2018-07-20T21:44:42.741Z,54.90
2018-07-20T21:47:10.220Z,55.00
2018-07-20T21:49:37.697Z,55.00
2018-07-20T21:52:05.427Z,55.00
2018-07-20T21:54:32.939Z,55.00
2018-07-20T21:59:27.801Z,54.60
2018-07-20T22:01:55.296Z,55.20
2018-07-20T22:04:23.054Z,55.20
2018-07-20T22:09:17.991Z,55.30
2018-07-20T22:11:45.476Z,55.40
2018-07-20T22:14:13.027Z,55.40
2018-07-20T22:16:40.642Z,56.00
2018-07-20T22:19:08.098Z,55.60
2018-07-20T22:21:35.512Z,55.50
2018-07-20T22:24:03.073Z,55.50
2018-07-20T22:26:30.792Z,55.50
2018-07-20T22:28:58.318Z,55.50
2018-07-20T22:31:25.858Z,55.50
2018-07-20T22:33:53.347Z,55.50
2018-07-20T22:36:20.823Z,55.70
2018-07-20T22:38:48.304Z,55.80
2018-07-20T22:41:15.706Z,55.90
2018-07-20T22:43:43.284Z,56.30
2018-07-20T22:46:10.840Z,56.60
2018-07-20T22:48:38.277Z,56.70
2018-07-20T22:51:05.962Z,56.90
2018-07-20T22:53:33.372Z,57.10
2018-07-20T22:56:00.791Z,57.50
2018-07-20T22:58:28.378Z,57.90
2018-07-20T23:00:55.795Z,58.00
2018-07-20T23:03:23.419Z,58.30
2018-07-20T23:05:51.095Z,58.40
2018-07-20T23:08:18.640Z,58.40
2018-07-20T23:10:46.257Z,58.60
2018-07-20T23:13:13.714Z,58.60
2018-07-20T23:15:41.223Z,58.50
2018-07-20T23:18:08.674Z,59.10
2018-07-20T23:20:36.255Z,58.60
2018-07-20T23:25:31.281Z,58.80
2018-07-20T23:27:58.722Z,59.00
2018-07-20T23:30:26.381Z,59.00
2018-07-20T23:32:54.170Z,59.10
2018-07-20T23:37:49.054Z,59.30
2018-07-20T23:40:16.541Z,59.30
2018-07-20T23:42:44.077Z,59.50
2018-07-20T23:45:11.763Z,59.70
2018-07-20T23:47:39.204Z,59.80
2018-07-20T23:52:34.219Z,60.00
2018-07-20T23:55:01.662Z,60.10
